sensor_id;sensor_type;location;lat;lon;timestamp;pressure;altitude;pressure_sealevel;temperature;humidity
6128;BME280;7073;42.672;23.256;2022-09-21T00:01:14;94521.34;;;10.07;89.55
6128;BME280;7073;42.672;23.256;2022-09-21T00:03:42;94522.03;;;9.90;89.99
6128;BME280;7073;42.672;23.256;2022-09-21T00:06:11;94522.81;;;9.90;90.80
6128;BME280;7073;42.672;23.256;2022-09-21T00:08:38;94521.88;;;9.71;90.79
6128;BME280;7073;42.672;23.256;2022-09-21T00:11:06;94509.00;;;9.90;91.14
6128;BME280;7073;42.672;23.256;2022-09-21T00:13:33;94527.13;;;10.16;89.86
6128;BME280;7073;42.672;23.256;2022-09-21T00:16:05;94525.94;;;10.05;89.04
6128;BME280;7073;42.672;23.256;2022-09-21T00:18:33;94517.06;;;9.75;90.54
6128;BME280;7073;42.672;23.256;2022-09-21T00:21:00;94517.28;;;9.67;90.41
6128;BME280;7073;42.672;23.256;2022-09-21T00:23:27;94518.94;;;9.55;91.66
6128;BME280;7073;42.672;23.256;2022-09-21T00:26:03;94513.09;;;9.66;91.27
6128;BME280;7073;42.672;23.256;2022-09-21T00:28:30;94508.88;;;9.71;90.91
6128;BME280;7073;42.672;23.256;2022-09-21T00:31:00;94509.28;;;9.68;90.64
6128;BME280;7073;42.672;23.256;2022-09-21T00:33:29;94517.13;;;9.55;90.46
6128;BME280;7073;42.672;23.256;2022-09-21T00:36:00;94509.00;;;9.32;92.17
6128;BME280;7073;42.672;23.256;2022-09-21T00:38:27;94505.78;;;9.37;92.49
6128;BME280;7073;42.672;23.256;2022-09-21T00:40:54;94508.13;;;9.58;91.90
6128;BME280;7073;42.672;23.256;2022-09-21T00:43:21;94513.50;;;9.63;91.09
6128;BME280;7073;42.672;23.256;2022-09-21T00:45:48;94508.09;;;9.71;90.46
6128;BME280;7073;42.672;23.256;2022-09-21T00:48:17;94506.63;;;9.81;90.43
6128;BME280;7073;42.672;23.256;2022-09-21T00:50:49;94509.28;;;9.68;91.80
6128;BME280;7073;42.672;23.256;2022-09-21T00:53:19;94506.81;;;9.80;91.43
6128;BME280;7073;42.672;23.256;2022-09-21T00:55:49;94510.22;;;9.87;89.22
6128;BME280;7073;42.672;23.256;2022-09-21T00:58:21;94503.56;;;9.98;88.62
6128;BME280;7073;42.672;23.256;2022-09-21T01:00:50;94497.97;;;9.94;89.67
6128;BME280;7073;42.672;23.256;2022-09-21T01:03:17;94496.53;;;10.05;88.93
6128;BME280;7073;42.672;23.256;2022-09-21T01:05:45;94511.31;;;10.11;88.07
6128;BME280;7073;42.672;23.256;2022-09-21T01:08:14;94506.91;;;10.11;88.04
6128;BME280;7073;42.672;23.256;2022-09-21T01:10:54;94512.47;;;9.70;90.67
6128;BME280;7073;42.672;23.256;2022-09-21T01:13:32;94515.47;;;9.74;90.65
6128;BME280;7073;42.672;23.256;2022-09-21T01:16:06;94496.41;;;9.80;89.86
6128;BME280;7073;42.672;23.256;2022-09-21T01:18:42;94507.69;;;9.74;91.44
6128;BME280;7073;42.672;23.256;2022-09-21T01:21:18;94504.59;;;9.26;93.61
6128;BME280;7073;42.672;23.256;2022-09-21T01:23:57;94499.59;;;9.31;94.31
6128;BME280;7073;42.672;23.256;2022-09-21T01:26:41;94498.44;;;8.94;95.84
6128;BME280;7073;42.672;23.256;2022-09-21T01:29:19;94495.38;;;9.37;94.58
6128;BME280;7073;42.672;23.256;2022-09-21T01:31:52;94495.13;;;9.51;94.38
6128;BME280;7073;42.672;23.256;2022-09-21T01:34:25;94495.69;;;9.66;92.96
6128;BME280;7073;42.672;23.256;2022-09-21T01:36:57;94492.13;;;9.61;92.59
6128;BME280;7073;42.672;23.256;2022-09-21T01:39:26;94490.72;;;9.52;93.28
6128;BME280;7073;42.672;23.256;2022-09-21T01:41:55;94489.69;;;9.66;92.42
6128;BME280;7073;42.672;23.256;2022-09-21T01:44:27;94489.50;;;9.61;92.30
6128;BME280;7073;42.672;23.256;2022-09-21T01:46:59;94493.50;;;9.63;92.78
6128;BME280;7073;42.672;23.256;2022-09-21T01:49:30;94491.75;;;9.51;93.11
6128;BME280;7073;42.672;23.256;2022-09-21T01:52:03;94455.66;;;9.10;93.56
6128;BME280;7073;42.672;23.256;2022-09-21T01:54:36;94491.66;;;8.80;96.08
6128;BME280;7073;42.672;23.256;2022-09-21T01:57:09;94488.06;;;8.81;97.23
6128;BME280;7073;42.672;23.256;2022-09-21T01:59:44;94483.66;;;8.75;97.30
6128;BME280;7073;42.672;23.256;2022-09-21T02:02:15;94474.09;;;8.69;97.32
6128;BME280;7073;42.672;23.256;2022-09-21T02:04:42;94481.06;;;8.75;97.50
6128;BME280;7073;42.672;23.256;2022-09-21T02:07:09;94489.66;;;8.76;96.98
6128;BME280;7073;42.672;23.256;2022-09-21T02:09:37;94482.47;;;8.71;95.69
6128;BME280;7073;42.672;23.256;2022-09-21T02:12:04;94486.88;;;8.84;94.59
6128;BME280;7073;42.672;23.256;2022-09-21T02:14:32;94483.44;;;8.96;93.68
6128;BME280;7073;42.672;23.256;2022-09-21T02:17:09;94497.84;;;9.05;92.73
6128;BME280;7073;42.672;23.256;2022-09-21T02:19:44;94495.44;;;9.10;93.15
6128;BME280;7073;42.672;23.256;2022-09-21T02:22:16;94502.19;;;9.24;93.45
6128;BME280;7073;42.672;23.256;2022-09-21T02:24:47;94500.22;;;9.20;93.43
6128;BME280;7073;42.672;23.256;2022-09-21T02:27:24;94500.25;;;9.13;94.82
6128;BME280;7073;42.672;23.256;2022-09-21T02:29:59;94505.06;;;9.03;95.30
6128;BME280;7073;42.672;23.256;2022-09-21T02:32:35;94506.00;;;9.22;94.83
6128;BME280;7073;42.672;23.256;2022-09-21T02:35:10;94504.03;;;9.11;95.67
6128;BME280;7073;42.672;23.256;2022-09-21T02:37:46;94497.63;;;9.07;95.46
6128;BME280;7073;42.672;23.256;2022-09-21T02:40:20;94502.84;;;9.00;96.77
6128;BME280;7073;42.672;23.256;2022-09-21T02:42:52;94506.81;;;9.09;95.61
6128;BME280;7073;42.672;23.256;2022-09-21T02:45:23;94500.59;;;9.17;95.12
6128;BME280;7073;42.672;23.256;2022-09-21T02:47:56;94497.88;;;8.92;95.11
6128;BME280;7073;42.672;23.256;2022-09-21T02:50:27;94493.06;;;8.76;96.02
6128;BME280;7073;42.672;23.256;2022-09-21T02:52:58;94495.88;;;8.81;96.37
6128;BME280;7073;42.672;23.256;2022-09-21T02:55:26;94504.44;;;8.88;96.19
6128;BME280;7073;42.672;23.256;2022-09-21T02:57:54;94506.41;;;9.12;94.98
6128;BME280;7073;42.672;23.256;2022-09-21T03:00:21;94502.19;;;9.24;94.07
6128;BME280;7073;42.672;23.256;2022-09-21T03:02:48;94505.00;;;9.23;93.72
6128;BME280;7073;42.672;23.256;2022-09-21T03:05:16;94496.44;;;8.83;94.83
6128;BME280;7073;42.672;23.256;2022-09-21T03:07:43;94502.03;;;9.06;94.70
6128;BME280;7073;42.672;23.256;2022-09-21T03:10:10;94493.03;;;9.02;93.79
6128;BME280;7073;42.672;23.256;2022-09-21T03:12:36;94511.84;;;8.91;94.19
6128;BME280;7073;42.672;23.256;2022-09-21T03:15:04;94506.84;;;8.83;95.27
6128;BME280;7073;42.672;23.256;2022-09-21T03:17:31;94503.84;;;8.73;95.50
6128;BME280;7073;42.672;23.256;2022-09-21T03:19:59;94508.84;;;8.68;96.20
6128;BME280;7073;42.672;23.256;2022-09-21T03:22:28;94502.25;;;8.59;96.96
6128;BME280;7073;42.672;23.256;2022-09-21T03:24:54;94508.59;;;8.30;98.43
6128;BME280;7073;42.672;23.256;2022-09-21T03:27:22;94517.41;;;8.49;97.65
6128;BME280;7073;42.672;23.256;2022-09-21T03:29:48;94485.47;;;8.42;97.22
6128;BME280;7073;42.672;23.256;2022-09-21T03:32:15;94508.25;;;8.66;97.09
6128;BME280;7073;42.672;23.256;2022-09-21T03:34:42;94516.06;;;8.79;96.40
6128;BME280;7073;42.672;23.256;2022-09-21T03:37:09;94519.03;;;8.89;96.07
6128;BME280;7073;42.672;23.256;2022-09-21T03:39:38;94511.22;;;8.83;95.73
6128;BME280;7073;42.672;23.256;2022-09-21T03:42:04;94519.84;;;8.50;96.52
6128;BME280;7073;42.672;23.256;2022-09-21T03:54:31;94531.31;;;8.22;100.00
6128;BME280;7073;42.672;23.256;2022-09-21T03:56:58;94522.00;;;8.40;100.00
6128;BME280;7073;42.672;23.256;2022-09-21T03:59:25;94541.19;;;8.72;98.99
6128;BME280;7073;42.672;23.256;2022-09-21T04:01:52;94520.44;;;8.79;98.06
6128;BME280;7073;42.672;23.256;2022-09-21T04:04:19;94528.44;;;8.84;97.97
6128;BME280;7073;42.672;23.256;2022-09-21T04:06:46;94529.78;;;8.40;98.38
6128;BME280;7073;42.672;23.256;2022-09-21T04:09:12;94521.81;;;8.48;98.80
6128;BME280;7073;42.672;23.256;2022-09-21T04:11:40;94532.19;;;8.61;98.22
6128;BME280;7073;42.672;23.256;2022-09-21T04:14:07;94532.59;;;8.52;97.77
6128;BME280;7073;42.672;23.256;2022-09-21T04:16:35;94536.81;;;8.53;98.82
6128;BME280;7073;42.672;23.256;2022-09-21T04:19:01;94536.63;;;8.61;97.84
6128;BME280;7073;42.672;23.256;2022-09-21T04:21:28;94535.19;;;8.52;98.38
6128;BME280;7073;42.672;23.256;2022-09-21T04:23:55;94536.19;;;8.64;98.44
6128;BME280;7073;42.672;23.256;2022-09-21T04:26:23;94536.63;;;8.61;98.27
6128;BME280;7073;42.672;23.256;2022-09-21T04:28:52;94532.41;;;8.67;97.56
6128;BME280;7073;42.672;23.256;2022-09-21T04:31:19;94534.81;;;8.55;98.24
6128;BME280;7073;42.672;23.256;2022-09-21T04:33:47;94539.41;;;8.66;97.42
6128;BME280;7073;42.672;23.256;2022-09-21T04:36:15;94531.00;;;8.77;97.56
6128;BME280;7073;42.672;23.256;2022-09-21T04:38:42;94538.81;;;8.71;98.09
6128;BME280;7073;42.672;23.256;2022-09-21T04:41:09;94530.63;;;8.74;97.79
6128;BME280;7073;42.672;23.256;2022-09-21T04:43:36;94540.22;;;8.86;96.98
6128;BME280;7073;42.672;23.256;2022-09-21T04:46:05;94540.59;;;9.22;96.52
6128;BME280;7073;42.672;23.256;2022-09-21T04:48:32;94539.38;;;9.45;95.36
6128;BME280;7073;42.672;23.256;2022-09-21T04:50:59;94537.31;;;9.60;94.43
6128;BME280;7073;42.672;23.256;2022-09-21T04:53:26;94536.25;;;9.87;93.94
6128;BME280;7073;42.672;23.256;2022-09-21T04:55:53;94534.63;;;9.86;93.04
6128;BME280;7073;42.672;23.256;2022-09-21T04:58:20;94536.38;;;9.99;93.33
6128;BME280;7073;42.672;23.256;2022-09-21T05:00:48;94540.97;;;10.03;91.54
6128;BME280;7073;42.672;23.256;2022-09-21T05:03:17;94537.22;;;9.93;92.30
6128;BME280;7073;42.672;23.256;2022-09-21T05:05:47;94548.56;;;10.11;91.08
6128;BME280;7073;42.672;23.256;2022-09-21T05:08:14;94544.34;;;10.17;90.21
6128;BME280;7073;42.672;23.256;2022-09-21T05:10:42;94549.53;;;10.23;89.44
6128;BME280;7073;42.672;23.256;2022-09-21T05:13:08;94548.28;;;10.32;89.58
6128;BME280;7073;42.672;23.256;2022-09-21T05:15:36;94547.78;;;10.49;88.41
6128;BME280;7073;42.672;23.256;2022-09-21T05:18:03;94549.53;;;10.55;87.70
6128;BME280;7073;42.672;23.256;2022-09-21T05:20:31;94546.91;;;10.61;87.63
6128;BME280;7073;42.672;23.256;2022-09-21T05:22:59;94540.00;;;10.73;87.47
6128;BME280;7073;42.672;23.256;2022-09-21T05:25:27;94549.75;;;10.84;86.90
6128;BME280;7073;42.672;23.256;2022-09-21T05:27:53;94536.31;;;10.87;86.49
6128;BME280;7073;42.672;23.256;2022-09-21T05:30:21;94541.19;;;11.27;85.33
6128;BME280;7073;42.672;23.256;2022-09-21T05:32:55;94541.22;;;11.20;85.83
6128;BME280;7073;42.672;23.256;2022-09-21T05:35:28;94551.38;;;11.53;85.08
6128;BME280;7073;42.672;23.256;2022-09-21T05:38:04;94554.50;;;11.61;83.39
6128;BME280;7073;42.672;23.256;2022-09-21T05:40:34;94555.50;;;11.60;83.33
6128;BME280;7073;42.672;23.256;2022-09-21T05:43:01;94549.56;;;11.53;83.49
6128;BME280;7073;42.672;23.256;2022-09-21T05:45:29;94560.06;;;11.90;83.65
6128;BME280;7073;42.672;23.256;2022-09-21T05:48:05;94554.19;;;11.76;83.17
6128;BME280;7073;42.672;23.256;2022-09-21T05:50:40;94551.47;;;11.83;83.53
6128;BME280;7073;42.672;23.256;2022-09-21T05:53:35;94540.44;;;11.99;82.74
6128;BME280;7073;42.672;23.256;2022-09-21T05:56:11;94550.31;;;11.97;82.62
6128;BME280;7073;42.672;23.256;2022-09-21T05:58:49;94550.75;;;11.76;83.13
6128;BME280;7073;42.672;23.256;2022-09-21T06:01:30;94552.34;;;11.58;83.63
6128;BME280;7073;42.672;23.256;2022-09-21T06:04:01;94549.22;;;11.68;82.77
6128;BME280;7073;42.672;23.256;2022-09-21T06:06:28;94550.19;;;11.74;82.72
6128;BME280;7073;42.672;23.256;2022-09-21T06:08:56;94554.09;;;11.83;81.22
6128;BME280;7073;42.672;23.256;2022-09-21T06:11:22;94553.06;;;11.65;82.50
6128;BME280;7073;42.672;23.256;2022-09-21T06:13:49;94556.63;;;11.89;81.57
6128;BME280;7073;42.672;23.256;2022-09-21T06:16:16;94556.28;;;11.86;80.07
6128;BME280;7073;42.672;23.256;2022-09-21T06:18:43;94558.97;;;11.97;80.06
6128;BME280;7073;42.672;23.256;2022-09-21T06:21:09;94558.28;;;12.20;80.28
6128;BME280;7073;42.672;23.256;2022-09-21T06:23:36;94554.44;;;12.04;79.06
6128;BME280;7073;42.672;23.256;2022-09-21T06:26:04;94562.38;;;11.98;79.21
6128;BME280;7073;42.672;23.256;2022-09-21T06:28:31;94561.75;;;12.32;78.80
6128;BME280;7073;42.672;23.256;2022-09-21T06:30:58;94562.53;;;12.51;78.12
6128;BME280;7073;42.672;23.256;2022-09-21T06:33:25;94576.56;;;12.68;76.71
6128;BME280;7073;42.672;23.256;2022-09-21T06:35:52;94572.97;;;12.51;77.36
6128;BME280;7073;42.672;23.256;2022-09-21T06:38:20;94578.84;;;12.46;75.38
6128;BME280;7073;42.672;23.256;2022-09-21T06:40:47;94575.97;;;12.66;76.51
6128;BME280;7073;42.672;23.256;2022-09-21T06:43:15;94573.72;;;12.40;80.92
6128;BME280;7073;42.672;23.256;2022-09-21T06:45:42;94575.88;;;12.72;81.13
6128;BME280;7073;42.672;23.256;2022-09-21T06:48:09;94584.88;;;12.76;80.62
6128;BME280;7073;42.672;23.256;2022-09-21T06:50:36;94579.47;;;12.89;78.19
6128;BME280;7073;42.672;23.256;2022-09-21T06:53:03;94584.88;;;12.76;78.20
6128;BME280;7073;42.672;23.256;2022-09-21T06:55:30;94585.50;;;13.02;77.56
6128;BME280;7073;42.672;23.256;2022-09-21T06:58:00;94593.78;;;13.17;77.13
6128;BME280;7073;42.672;23.256;2022-09-21T07:00:29;94587.88;;;13.33;76.77
6128;BME280;7073;42.672;23.256;2022-09-21T07:02:56;94585.03;;;13.46;75.10
6128;BME280;7073;42.672;23.256;2022-09-21T07:05:23;94595.28;;;13.36;74.72
6128;BME280;7073;42.672;23.256;2022-09-21T07:07:50;94592.78;;;13.41;76.22
6128;BME280;7073;42.672;23.256;2022-09-21T07:10:21;94599.97;;;13.04;77.46
6128;BME280;7073;42.672;23.256;2022-09-21T07:12:48;94592.63;;;13.13;77.08
6128;BME280;7073;42.672;23.256;2022-09-21T07:15:16;94599.69;;;13.35;76.70
6128;BME280;7073;42.672;23.256;2022-09-21T07:17:44;94582.97;;;13.25;76.58
6128;BME280;7073;42.672;23.256;2022-09-21T07:20:11;94595.84;;;13.26;76.82
6128;BME280;7073;42.672;23.256;2022-09-21T07:22:38;94602.59;;;13.45;75.55
6128;BME280;7073;42.672;23.256;2022-09-21T07:25:05;94597.09;;;13.47;75.62
6128;BME280;7073;42.672;23.256;2022-09-21T07:27:32;94591.41;;;12.97;76.24
6128;BME280;7073;42.672;23.256;2022-09-21T07:29:59;94597.66;;;12.84;77.35
6128;BME280;7073;42.672;23.256;2022-09-21T07:32:26;94597.72;;;13.08;77.67
6128;BME280;7073;42.672;23.256;2022-09-21T07:34:54;94600.72;;;13.11;78.09
6128;BME280;7073;42.672;23.256;2022-09-21T07:37:21;94605.13;;;13.11;77.54
6128;BME280;7073;42.672;23.256;2022-09-21T07:39:49;94596.09;;;12.95;76.27
6128;BME280;7073;42.672;23.256;2022-09-21T07:42:16;94608.44;;;13.18;76.47
6128;BME280;7073;42.672;23.256;2022-09-21T07:44:45;94606.91;;;12.69;77.18
6128;BME280;7073;42.672;23.256;2022-09-21T07:47:11;94601.41;;;12.88;78.18
6128;BME280;7073;42.672;23.256;2022-09-21T07:49:39;94596.75;;;12.91;76.81
6128;BME280;7073;42.672;23.256;2022-09-21T07:52:07;94597.91;;;12.95;76.56
6128;BME280;7073;42.672;23.256;2022-09-21T07:54:34;94603.94;;;12.95;76.31
6128;BME280;7073;42.672;23.256;2022-09-21T07:57:01;94599.66;;;13.12;75.54
6128;BME280;7073;42.672;23.256;2022-09-21T07:59:46;94603.81;;;13.31;74.92
6128;BME280;7073;42.672;23.256;2022-09-21T08:02:13;94593.06;;;13.10;75.02
6128;BME280;7073;42.672;23.256;2022-09-21T08:04:39;94592.41;;;13.26;74.63
6128;BME280;7073;42.672;23.256;2022-09-21T08:07:07;94590.28;;;13.34;74.30
6128;BME280;7073;42.672;23.256;2022-09-21T08:09:34;94597.09;;;13.47;74.40
6128;BME280;7073;42.672;23.256;2022-09-21T08:12:01;94600.84;;;13.28;73.57
6128;BME280;7073;42.672;23.256;2022-09-21T08:14:28;94596.03;;;13.25;74.33
6128;BME280;7073;42.672;23.256;2022-09-21T08:16:55;94602.47;;;13.40;73.46
6128;BME280;7073;42.672;23.256;2022-09-21T08:19:21;94599.16;;;13.91;73.15
6128;BME280;7073;42.672;23.256;2022-09-21T08:21:50;94596.44;;;13.75;71.50
6128;BME280;7073;42.672;23.256;2022-09-21T08:24:19;94595.06;;;13.72;69.86
6128;BME280;7073;42.672;23.256;2022-09-21T08:26:46;94592.78;;;13.87;69.33
6128;BME280;7073;42.672;23.256;2022-09-21T08:29:15;94583.88;;;14.00;67.81
6128;BME280;7073;42.672;23.256;2022-09-21T08:31:42;94588.81;;;13.85;68.74
6128;BME280;7073;42.672;23.256;2022-09-21T08:34:10;94577.88;;;13.88;68.97
6128;BME280;7073;42.672;23.256;2022-09-21T08:36:37;94583.09;;;13.99;68.06
6128;BME280;7073;42.672;23.256;2022-09-21T08:39:05;94585.50;;;13.89;69.01
6128;BME280;7073;42.672;23.256;2022-09-21T08:41:50;94585.34;;;14.07;68.01
6128;BME280;7073;42.672;23.256;2022-09-21T08:44:22;94586.63;;;13.93;68.50
6128;BME280;7073;42.672;23.256;2022-09-21T08:47:01;94584.50;;;14.30;66.43
6128;BME280;7073;42.672;23.256;2022-09-21T08:49:30;94586.72;;;14.22;67.36
6128;BME280;7073;42.672;23.256;2022-09-21T08:52:00;94569.91;;;14.46;66.78
6128;BME280;7073;42.672;23.256;2022-09-21T08:54:35;94571.75;;;14.34;65.10
6128;BME280;7073;42.672;23.256;2022-09-21T08:57:09;94569.56;;;14.31;65.94
6128;BME280;7073;42.672;23.256;2022-09-21T08:59:38;94567.78;;;14.31;67.08
6128;BME280;7073;42.672;23.256;2022-09-21T09:02:24;94563.34;;;14.32;65.08
6128;BME280;7073;42.672;23.256;2022-09-21T09:04:59;94563.13;;;14.61;65.01
6128;BME280;7073;42.672;23.256;2022-09-21T09:07:44;94562.06;;;14.46;62.98
6128;BME280;7073;42.672;23.256;2022-09-21T09:10:32;94557.28;;;14.71;63.42
6128;BME280;7073;42.672;23.256;2022-09-21T09:13:14;94565.00;;;14.94;62.04
6128;BME280;7073;42.672;23.256;2022-09-21T09:15:54;94561.34;;;14.50;61.59
6128;BME280;7073;42.672;23.256;2022-09-21T09:18:29;94561.00;;;14.47;60.78
6128;BME280;7073;42.672;23.256;2022-09-21T09:21:04;94565.66;;;14.17;63.08
6128;BME280;7073;42.672;23.256;2022-09-21T09:23:38;94552.94;;;14.48;61.60
6128;BME280;7073;42.672;23.256;2022-09-21T09:26:09;94548.63;;;13.79;62.03
6128;BME280;7073;42.672;23.256;2022-09-21T09:28:44;94551.13;;;13.63;62.22
6128;BME280;7073;42.672;23.256;2022-09-21T09:31:18;94553.28;;;13.77;60.65
6128;BME280;7073;42.672;23.256;2022-09-21T09:33:52;94549.19;;;13.93;59.71
6128;BME280;7073;42.672;23.256;2022-09-21T09:36:20;94542.56;;;14.42;60.16
6128;BME280;7073;42.672;23.256;2022-09-21T09:38:54;94547.28;;;14.85;57.63
6128;BME280;7073;42.672;23.256;2022-09-21T09:41:40;94529.97;;;15.00;58.88
6128;BME280;7073;42.672;23.256;2022-09-21T09:44:32;94542.94;;;15.23;56.71
6128;BME280;7073;42.672;23.256;2022-09-21T09:47:08;94531.88;;;15.38;56.57
6128;BME280;7073;42.672;23.256;2022-09-21T09:49:44;94530.47;;;15.14;57.99
6128;BME280;7073;42.672;23.256;2022-09-21T09:52:19;94530.34;;;14.92;59.10
6128;BME280;7073;42.672;23.256;2022-09-21T09:54:46;94533.63;;;15.32;57.63
6128;BME280;7073;42.672;23.256;2022-09-21T09:57:14;94530.06;;;15.55;55.59
6128;BME280;7073;42.672;23.256;2022-09-21T09:59:49;94528.88;;;15.29;56.09
6128;BME280;7073;42.672;23.256;2022-09-21T10:02:19;94526.00;;;15.48;55.64
6128;BME280;7073;42.672;23.256;2022-09-21T10:04:54;94517.00;;;15.10;55.46
6128;BME280;7073;42.672;23.256;2022-09-21T10:07:35;94516.19;;;14.77;55.61
6128;BME280;7073;42.672;23.256;2022-09-21T10:10:25;94508.34;;;14.93;55.36
6128;BME280;7073;42.672;23.256;2022-09-21T10:13:02;94506.09;;;14.68;54.60
6128;BME280;7073;42.672;23.256;2022-09-21T10:15:32;94511.53;;;14.95;55.04
6128;BME280;7073;42.672;23.256;2022-09-21T10:18:03;94510.03;;;14.54;56.08
6128;BME280;7073;42.672;23.256;2022-09-21T10:20:32;94508.47;;;14.70;55.98
6128;BME280;7073;42.672;23.256;2022-09-21T10:22:59;94505.06;;;15.53;53.29
6128;BME280;7073;42.672;23.256;2022-09-21T10:25:28;94512.63;;;16.52;52.67
6128;BME280;7073;42.672;23.256;2022-09-21T10:27:56;94512.38;;;15.89;50.61
6128;BME280;7073;42.672;23.256;2022-09-21T10:30:35;94508.34;;;16.73;49.12
6128;BME280;7073;42.672;23.256;2022-09-21T10:33:17;94505.00;;;17.46;47.31
6128;BME280;7073;42.672;23.256;2022-09-21T10:35:49;94499.53;;;17.53;45.35
6128;BME280;7073;42.672;23.256;2022-09-21T10:38:17;94498.00;;;18.09;43.86
6128;BME280;7073;42.672;23.256;2022-09-21T10:40:45;94502.09;;;17.85;44.10
6128;BME280;7073;42.672;23.256;2022-09-21T10:43:32;94493.94;;;17.86;45.04
6128;BME280;7073;42.672;23.256;2022-09-21T10:46:01;94496.34;;;17.93;45.46
6128;BME280;7073;42.672;23.256;2022-09-21T10:48:28;94482.47;;;16.92;46.61
6128;BME280;7073;42.672;23.256;2022-09-21T10:50:56;94483.47;;;16.32;47.57
6128;BME280;7073;42.672;23.256;2022-09-21T10:53:25;94484.38;;;15.78;48.87
6128;BME280;7073;42.672;23.256;2022-09-21T10:55:58;94489.09;;;15.38;49.84
6128;BME280;7073;42.672;23.256;2022-09-21T10:58:26;94478.59;;;15.21;51.18
6128;BME280;7073;42.672;23.256;2022-09-21T11:00:54;94478.59;;;15.04;51.90
6128;BME280;7073;42.672;23.256;2022-09-21T11:03:36;94481.75;;;15.40;51.48
6128;BME280;7073;42.672;23.256;2022-09-21T11:06:10;94481.53;;;16.49;48.58
6128;BME280;7073;42.672;23.256;2022-09-21T11:08:44;94471.03;;;16.28;47.72
6128;BME280;7073;42.672;23.256;2022-09-21T11:11:34;94469.50;;;16.54;47.85
6128;BME280;7073;42.672;23.256;2022-09-21T11:14:12;94452.56;;;17.03;44.87
6128;BME280;7073;42.672;23.256;2022-09-21T11:16:45;94467.88;;;17.95;44.45
6128;BME280;7073;42.672;23.256;2022-09-21T11:19:20;94471.63;;;18.04;42.52
6128;BME280;7073;42.672;23.256;2022-09-21T11:21:54;94462.22;;;18.38;41.91
6128;BME280;7073;42.672;23.256;2022-09-21T11:24:35;94467.72;;;18.26;41.98
6128;BME280;7073;42.672;23.256;2022-09-21T11:27:06;94468.63;;;17.38;43.57
6128;BME280;7073;42.672;23.256;2022-09-21T11:29:42;94459.50;;;16.82;46.19
6128;BME280;7073;42.672;23.256;2022-09-21T11:32:24;94470.28;;;16.81;45.52
6128;BME280;7073;42.672;23.256;2022-09-21T11:38:16;94477.84;;;15.80;47.70
6128;BME280;7073;42.672;23.256;2022-09-21T11:41:00;94467.84;;;15.77;48.26
6128;BME280;7073;42.672;23.256;2022-09-21T11:43:52;94477.38;;;15.45;49.46
6128;BME280;7073;42.672;23.256;2022-09-21T11:46:25;94473.66;;;14.91;50.94
6128;BME280;7073;42.672;23.256;2022-09-21T11:49:05;94464.53;;;14.94;50.51
6128;BME280;7073;42.672;23.256;2022-09-21T11:51:48;94469.84;;;14.65;51.59
6128;BME280;7073;42.672;23.256;2022-09-21T11:57:22;94482.91;;;14.77;53.95
6128;BME280;7073;42.672;23.256;2022-09-21T12:00:09;94475.88;;;14.66;52.92
6128;BME280;7073;42.672;23.256;2022-09-21T12:03:17;94478.44;;;14.78;53.32
6128;BME280;7073;42.672;23.256;2022-09-21T12:06:02;94478.53;;;14.83;53.42
6128;BME280;7073;42.672;23.256;2022-09-21T12:08:42;94482.09;;;15.26;52.45
6128;BME280;7073;42.672;23.256;2022-09-21T12:11:24;94485.25;;;15.45;52.55
6128;BME280;7073;42.672;23.256;2022-09-21T12:14:00;94487.47;;;15.37;51.21
6128;BME280;7073;42.672;23.256;2022-09-21T12:16:36;94482.34;;;14.92;52.07
6128;BME280;7073;42.672;23.256;2022-09-21T12:19:11;94487.34;;;15.10;52.04
6128;BME280;7073;42.672;23.256;2022-09-21T12:21:45;94489.09;;;15.21;52.63
6128;BME280;7073;42.672;23.256;2022-09-21T12:24:15;94488.91;;;15.44;52.20
6128;BME280;7073;42.672;23.256;2022-09-21T12:26:52;94492.91;;;15.30;52.98
6128;BME280;7073;42.672;23.256;2022-09-21T12:29:25;94494.25;;;15.32;52.58
6128;BME280;7073;42.672;23.256;2022-09-21T12:32:01;94484.97;;;15.08;52.37
6128;BME280;7073;42.672;23.256;2022-09-21T12:34:37;94487.34;;;15.10;52.32
6128;BME280;7073;42.672;23.256;2022-09-21T12:37:08;94492.63;;;15.65;51.34
6128;BME280;7073;42.672;23.256;2022-09-21T12:39:41;94484.69;;;16.51;48.94
6128;BME280;7073;42.672;23.256;2022-09-21T12:42:24;94496.75;;;17.33;47.16
6128;BME280;7073;42.672;23.256;2022-09-21T12:44:54;94493.50;;;16.89;46.74
6128;BME280;7073;42.672;23.256;2022-09-21T12:47:28;94494.19;;;17.06;46.41
6128;BME280;7073;42.672;23.256;2022-09-21T12:50:02;94491.69;;;17.26;45.94
6128;BME280;7073;42.672;23.256;2022-09-21T12:52:31;94488.97;;;17.11;47.58
6128;BME280;7073;42.672;23.256;2022-09-21T12:55:05;94493.50;;;17.57;47.66
6128;BME280;7073;42.672;23.256;2022-09-21T12:57:48;94494.59;;;17.61;46.61
6128;BME280;7073;42.672;23.256;2022-09-21T13:00:19;94495.50;;;17.82;45.88
6128;BME280;7073;42.672;23.256;2022-09-21T13:02:52;94487.19;;;18.10;45.64
6128;BME280;7073;42.672;23.256;2022-09-21T13:05:29;94490.00;;;18.51;44.81
6128;BME280;7073;42.672;23.256;2022-09-21T13:08:03;94485.72;;;18.45;43.56
6128;BME280;7073;42.672;23.256;2022-09-21T13:10:44;94488.47;;;18.85;43.08
6128;BME280;7073;42.672;23.256;2022-09-21T13:13:22;94485.81;;;18.75;42.52
6128;BME280;7073;42.672;23.256;2022-09-21T13:15:51;94473.38;;;18.60;43.04
6128;BME280;7073;42.672;23.256;2022-09-21T13:18:22;94472.31;;;18.51;43.83
6128;BME280;7073;42.672;23.256;2022-09-21T13:20:50;94475.00;;;18.97;43.34
6128;BME280;7073;42.672;23.256;2022-09-21T13:23:23;94475.94;;;18.30;44.35
6128;BME280;7073;42.672;23.256;2022-09-21T13:26:00;94479.00;;;17.55;45.34
6128;BME280;7073;42.672;23.256;2022-09-21T13:28:59;94477.94;;;16.82;47.12
6128;BME280;7073;42.672;23.256;2022-09-21T13:31:40;94469.59;;;16.64;48.18
6128;BME280;7073;42.672;23.256;2022-09-21T13:34:31;94468.91;;;16.51;48.08
6128;BME280;7073;42.672;23.256;2022-09-21T13:37:25;94465.69;;;16.44;48.32
6128;BME280;7073;42.672;23.256;2022-09-21T13:43:19;94461.41;;;16.92;47.83
6128;BME280;7073;42.672;23.256;2022-09-21T13:45:54;94465.41;;;16.68;48.85
6128;BME280;7073;42.672;23.256;2022-09-21T13:48:24;94464.84;;;16.92;47.37
6128;BME280;7073;42.672;23.256;2022-09-21T13:50:56;94454.63;;;17.80;45.66
6128;BME280;7073;42.672;23.256;2022-09-21T13:53:30;94451.09;;;18.26;44.68
6128;BME280;7073;42.672;23.256;2022-09-21T13:56:04;94453.78;;;17.69;45.03
6128;BME280;7073;42.672;23.256;2022-09-21T13:58:34;94458.50;;;17.62;45.62